createdAt,value
2022-10-23T00:03:49.517Z,7.32
2022-10-23T00:06:17.145Z,7.47
2022-10-23T00:08:47.037Z,8.35
2022-10-23T00:11:16.033Z,8.07
2022-10-23T00:13:43.737Z,8.63
2022-10-23T00:16:11.742Z,7.75
2022-10-23T00:18:39.905Z,9.45
2022-10-23T00:21:11.148Z,8.43
2022-10-23T00:23:38.862Z,7.57
2022-10-23T00:26:07.086Z,7.88
2022-10-23T00:28:37.410Z,7.82
2022-10-23T00:33:36.375Z,7.93
2022-10-23T00:36:07.804Z,7.53
2022-10-23T00:38:35.698Z,7.82
2022-10-23T00:41:04.010Z,7.65
2022-10-23T00:43:33.569Z,7.10
2022-10-23T00:46:02.086Z,8.30
2022-10-23T00:48:31.442Z,7.80
2022-10-23T00:51:01.282Z,8.07
2022-10-23T00:53:30.494Z,7.80
2022-10-23T00:56:00.274Z,7.93
2022-10-23T00:58:28.312Z,6.93
2022-10-23T01:00:56.973Z,7.13
2022-10-23T01:03:26.546Z,6.93
2022-10-23T01:05:56.708Z,7.13
2022-10-23T01:11:18.999Z,6.70
2022-10-23T01:13:53.700Z,7.15
2022-10-23T01:16:28.093Z,6.40
2022-10-23T01:19:10.901Z,6.95
2022-10-23T01:22:01.319Z,6.03
2022-10-23T01:24:32.299Z,7.55
2022-10-23T01:27:21.937Z,7.38
2022-10-23T01:30:06.451Z,7.60
2022-10-23T01:32:55.461Z,6.82
2022-10-23T01:35:36.991Z,6.85
2022-10-23T01:38:12.779Z,6.88
2022-10-23T01:40:51.747Z,6.78
2022-10-23T01:43:28.807Z,6.50
2022-10-23T01:46:02.175Z,6.32
2022-10-23T01:48:31.814Z,6.18
2022-10-23T01:51:02.571Z,6.50
2022-10-23T01:56:01.444Z,6.30
2022-10-23T01:58:35.618Z,6.72
2022-10-23T02:01:08.309Z,6.22
2022-10-23T02:03:49.305Z,7.03
2022-10-23T02:06:18.290Z,6.82
2022-10-23T02:08:47.077Z,6.75
2022-10-23T02:11:15.866Z,6.35
2022-10-23T02:13:47.313Z,6.55
2022-10-23T02:16:31.458Z,6.63
2022-10-23T02:19:17.749Z,6.80
2022-10-23T02:21:52.344Z,7.32
2022-10-23T02:24:24.070Z,7.55
2022-10-23T02:26:57.250Z,7.38
2022-10-23T02:29:34.466Z,6.60
2022-10-23T02:32:02.741Z,7.68
2022-10-23T02:34:31.026Z,6.93
2022-10-23T02:36:59.916Z,6.57
2022-10-23T02:39:28.345Z,7.15
2022-10-23T02:42:12.906Z,7.47
2022-10-23T02:44:48.865Z,7.03
2022-10-23T02:47:22.886Z,6.65
2022-10-23T02:50:09.184Z,7.05
2022-10-23T02:52:53.297Z,7.10
2022-10-23T02:55:26.933Z,7.05
2022-10-23T02:57:57.850Z,7.10
2022-10-23T03:00:26.109Z,6.53
2022-10-23T03:02:53.621Z,7.55
2022-10-23T03:05:25.379Z,7.97
2022-10-23T03:07:53.757Z,7.35
2022-10-23T03:10:26.103Z,8.10
2022-10-23T03:12:53.713Z,7.25
2022-10-23T03:15:22.689Z,7.20
2022-10-23T03:17:52.051Z,6.90
2022-10-23T03:20:26.950Z,7.63
2022-10-23T03:22:54.983Z,7.05
2022-10-23T03:25:22.655Z,6.95
2022-10-23T03:27:50.715Z,6.93
2022-10-23T03:30:19.021Z,6.22
2022-10-23T03:32:50.786Z,6.55
2022-10-23T03:35:19.062Z,6.60
2022-10-23T03:37:47.068Z,6.47
2022-10-23T03:40:15.002Z,6.35
2022-10-23T03:42:43.917Z,5.95
2022-10-23T03:45:15.863Z,6.03
2022-10-23T03:47:45.341Z,5.63
2022-10-23T03:50:15.177Z,5.65
2022-10-23T03:52:43.183Z,6.28
2022-10-23T03:55:13.676Z,5.88
2022-10-23T03:57:42.454Z,5.38
2022-10-23T04:00:10.863Z,6.00
2022-10-23T04:02:45.115Z,6.05
2022-10-23T04:05:13.252Z,5.90
2022-10-23T04:07:49.790Z,5.90
2022-10-23T04:10:17.808Z,5.82
2022-10-23T04:12:45.819Z,5.22
2022-10-23T04:15:13.649Z,6.05
2022-10-23T04:17:44.547Z,5.20
2022-10-23T04:20:13.430Z,5.32
2022-10-23T04:22:41.325Z,4.90
2022-10-23T04:25:12.452Z,4.80
2022-10-23T04:27:40.165Z,5.05
2022-10-23T04:30:09.011Z,5.20
2022-10-23T04:32:39.022Z,5.50
2022-10-23T04:35:07.198Z,5.00
2022-10-23T04:37:35.989Z,4.53
2022-10-23T04:40:07.421Z,4.43
2022-10-23T04:42:38.388Z,4.90
2022-10-23T04:45:06.811Z,4.20
2022-10-23T04:47:36.396Z,4.30
2022-10-23T04:50:07.248Z,4.68
2022-10-23T04:52:58.498Z,4.10
2022-10-23T04:55:51.662Z,5.60
2022-10-23T04:58:35.530Z,4.82
2022-10-23T05:01:03.138Z,5.57
2022-10-23T05:03:32.713Z,4.95
2022-10-23T05:06:03.288Z,5.28
2022-10-23T05:09:01.723Z,4.95
2022-10-23T05:11:56.120Z,4.53
2022-10-23T05:14:24.978Z,5.15
2022-10-23T05:16:55.055Z,5.70
2022-10-23T05:19:27.889Z,5.78
2022-10-23T05:21:56.929Z,5.53
2022-10-23T05:24:38.577Z,5.97
2022-10-23T05:27:09.716Z,6.03
2022-10-23T05:29:41.324Z,6.78
2022-10-23T05:32:11.759Z,7.00
2022-10-23T05:34:40.312Z,6.95
2022-10-23T05:37:11.677Z,7.10
2022-10-23T05:39:41.483Z,7.28
2022-10-23T05:42:16.098Z,7.05
2022-10-23T05:44:44.305Z,7.30
2022-10-23T05:47:40.965Z,6.25
2022-10-23T05:50:38.451Z,6.87
2022-10-23T05:53:27.605Z,6.63
2022-10-23T05:56:08.366Z,6.43
2022-10-23T05:58:44.297Z,7.22
2022-10-23T06:01:23.322Z,6.38
2022-10-23T06:04:06.255Z,6.18
2022-10-23T06:06:52.575Z,6.38
2022-10-23T06:09:21.532Z,6.70
2022-10-23T06:11:50.762Z,5.78
2022-10-23T06:14:26.015Z,7.88
2022-10-23T06:16:54.816Z,6.35
2022-10-23T06:19:24.817Z,6.13
2022-10-23T06:21:56.482Z,5.88
2022-10-23T06:24:36.398Z,5.95
2022-10-23T06:27:10.612Z,5.80
2022-10-23T06:29:50.864Z,6.28
2022-10-23T06:32:19.720Z,5.63
2022-10-23T06:35:03.800Z,5.68
2022-10-23T06:37:35.007Z,5.88
2022-10-23T06:40:10.830Z,5.53
2022-10-23T06:42:58.870Z,6.20
2022-10-23T06:45:34.213Z,5.60
2022-10-23T06:48:14.503Z,5.90
2022-10-23T06:51:06.379Z,5.53
2022-10-23T06:53:43.958Z,5.63
2022-10-23T06:56:44.623Z,5.55
2022-10-23T06:59:14.762Z,4.88
2022-10-23T07:01:43.539Z,4.93
2022-10-23T07:04:14.196Z,4.93
2022-10-23T07:06:44.070Z,5.22
2022-10-23T07:09:11.963Z,4.87
2022-10-23T07:11:52.114Z,5.22
2022-10-23T07:14:22.829Z,4.57
2022-10-23T07:16:50.700Z,4.93
2022-10-23T07:19:18.890Z,4.82
2022-10-23T07:22:03.481Z,5.03
2022-10-23T07:24:51.827Z,5.78
2022-10-23T07:27:27.669Z,4.75
2022-10-23T07:29:58.693Z,5.43
2022-10-23T07:32:33.735Z,4.45
2022-10-23T07:35:21.606Z,4.85
2022-10-23T07:37:57.730Z,5.07
2022-10-23T07:40:26.972Z,4.85
2022-10-23T07:43:00.121Z,5.00
2022-10-23T07:47:57.834Z,4.78
2022-10-23T07:50:40.675Z,4.82
2022-10-23T07:53:15.758Z,4.50
2022-10-23T07:55:45.136Z,4.40
2022-10-23T07:58:17.081Z,4.25
2022-10-23T08:00:53.317Z,4.55
2022-10-23T08:03:29.844Z,4.50
2022-10-23T08:05:58.678Z,4.00
2022-10-23T08:08:35.187Z,4.20
2022-10-23T08:11:05.497Z,4.10
2022-10-23T08:13:44.522Z,4.07
2022-10-23T08:16:12.868Z,4.10
2022-10-23T08:19:01.252Z,4.28
2022-10-23T08:21:31.045Z,4.70
2022-10-23T08:24:02.538Z,4.00
2022-10-23T08:26:32.611Z,3.85
2022-10-23T08:29:01.326Z,3.97
2022-10-23T08:31:31.635Z,4.05
2022-10-23T08:34:22.682Z,3.75
2022-10-23T08:36:53.826Z,4.05
2022-10-23T08:39:22.274Z,3.65
2022-10-23T08:42:24.805Z,3.42
2022-10-23T08:45:14.381Z,3.78
2022-10-23T08:47:45.127Z,3.50
2022-10-23T08:50:35.741Z,3.88
2022-10-23T08:53:17.395Z,3.58
2022-10-23T08:55:46.911Z,3.42
2022-10-23T08:58:21.402Z,3.63
2022-10-23T09:00:53.814Z,4.20
2022-10-23T09:03:23.162Z,3.50
2022-10-23T09:05:56.931Z,3.20
2022-10-23T09:08:34.349Z,3.33
2022-10-23T09:11:04.480Z,3.55
2022-10-23T09:13:49.437Z,3.83
2022-10-23T09:16:30.107Z,3.60
2022-10-23T09:19:01.989Z,3.40
2022-10-23T09:21:33.404Z,3.15
2022-10-23T09:24:12.670Z,3.15
2022-10-23T09:26:43.422Z,3.22
2022-10-23T09:29:36.229Z,3.20
2022-10-23T09:32:05.418Z,3.28
2022-10-23T09:34:36.708Z,3.15
2022-10-23T09:37:20.175Z,3.53
2022-10-23T09:39:50.464Z,2.88
2022-10-23T09:42:26.425Z,3.00
2022-10-23T09:44:55.574Z,3.08
2022-10-23T09:47:25.685Z,3.08
2022-10-23T09:49:55.078Z,3.83
2022-10-23T09:52:34.808Z,2.60
2022-10-23T09:55:04.963Z,2.88
2022-10-23T09:57:43.852Z,3.10
2022-10-23T10:00:22.463Z,2.80
2022-10-23T10:03:07.415Z,3.17
2022-10-23T10:05:37.830Z,2.97
2022-10-23T10:08:10.484Z,3.45
2022-10-23T10:10:48.870Z,2.97
2022-10-23T10:13:38.234Z,2.90
2022-10-23T10:16:09.111Z,2.47
2022-10-23T10:19:09.762Z,3.65
2022-10-23T10:24:11.158Z,2.40
2022-10-23T10:26:51.977Z,2.67
2022-10-23T10:29:38.587Z,2.58
2022-10-23T10:32:16.384Z,2.05
2022-10-23T10:34:49.207Z,2.60
2022-10-23T10:37:28.088Z,2.60
2022-10-23T10:40:06.880Z,2.05
2022-10-23T10:43:09.674Z,2.30
2022-10-23T10:45:45.997Z,2.35
2022-10-23T10:48:19.872Z,2.40
2022-10-23T10:51:37.196Z,2.58
2022-10-23T10:54:16.845Z,2.88
2022-10-23T10:56:45.826Z,2.47
2022-10-23T10:59:30.289Z,2.10
2022-10-23T11:02:04.541Z,2.25
2022-10-23T11:04:32.991Z,2.00
2022-10-23T11:07:02.935Z,2.03
2022-10-23T11:09:33.059Z,2.40
2022-10-23T11:12:03.060Z,2.45
2022-10-23T11:14:41.424Z,2.05
2022-10-23T11:17:09.023Z,2.42
2022-10-23T11:19:57.941Z,2.70
2022-10-23T11:22:32.186Z,2.03
2022-10-23T11:25:06.610Z,2.33
2022-10-23T11:27:47.920Z,2.33
2022-10-23T11:30:36.179Z,2.10
2022-10-23T11:33:22.966Z,2.17
2022-10-23T11:35:56.747Z,2.20
2022-10-23T11:38:36.567Z,2.22
2022-10-23T11:41:19.970Z,2.55
2022-10-23T11:43:51.995Z,1.70
2022-10-23T11:46:26.727Z,2.30
2022-10-23T11:48:55.065Z,3.35
2022-10-23T11:51:31.636Z,2.38
2022-10-23T11:54:07.315Z,2.42
2022-10-23T11:56:39.463Z,2.15
2022-10-23T11:59:27.280Z,1.92
2022-10-23T12:05:17.442Z,2.20
2022-10-23T12:07:47.195Z,2.25
2022-10-23T12:10:27.730Z,2.55
2022-10-23T12:15:26.061Z,2.22
2022-10-23T12:17:56.185Z,2.20
2022-10-23T12:20:49.012Z,2.45
2022-10-23T12:23:21.626Z,2.40
2022-10-23T12:25:55.470Z,2.08
2022-10-23T12:28:38.814Z,2.17
2022-10-23T12:31:26.323Z,1.83
2022-10-23T12:34:01.766Z,2.47
2022-10-23T12:36:44.942Z,2.13
2022-10-23T12:39:31.282Z,2.22
2022-10-23T12:42:01.249Z,2.15
2022-10-23T12:44:32.316Z,2.10
2022-10-23T12:47:07.281Z,2.00
2022-10-23T12:49:36.461Z,2.25
2022-10-23T12:52:06.229Z,2.00
2022-10-23T12:54:39.245Z,1.95
2022-10-23T12:57:26.551Z,3.28
2022-10-23T12:59:57.702Z,1.95
2022-10-23T13:02:31.935Z,1.70
2022-10-23T13:05:02.368Z,1.65
2022-10-23T13:07:36.583Z,2.10
2022-10-23T13:10:06.299Z,2.33
2022-10-23T13:12:38.310Z,2.03
2022-10-23T13:15:12.202Z,2.08
2022-10-23T13:17:44.193Z,2.33
2022-10-23T13:20:19.260Z,2.20
2022-10-23T13:22:48.755Z,2.95
2022-10-23T13:25:21.241Z,2.30
2022-10-23T13:27:52.041Z,2.00
2022-10-23T13:32:49.472Z,2.47
2022-10-23T13:35:23.948Z,2.08
2022-10-23T13:37:52.396Z,1.98
2022-10-23T13:40:25.265Z,1.85
2022-10-23T13:42:54.665Z,2.58
2022-10-23T13:45:25.637Z,2.60
2022-10-23T13:47:53.869Z,2.22
2022-10-23T13:50:21.562Z,2.53
2022-10-23T13:52:49.093Z,2.30
2022-10-23T13:55:20.834Z,2.20
2022-10-23T13:57:48.980Z,2.10
2022-10-23T14:00:18.079Z,2.90
2022-10-23T14:02:45.875Z,2.47
2022-10-23T14:05:15.075Z,2.53
2022-10-23T14:07:43.133Z,2.28
2022-10-23T14:10:13.198Z,2.28
2022-10-23T14:12:45.085Z,2.60
2022-10-23T14:15:16.664Z,2.70
2022-10-23T14:17:44.320Z,2.50
2022-10-23T14:20:13.849Z,2.30
2022-10-23T14:22:42.047Z,2.42
2022-10-23T14:25:10.786Z,2.10
2022-10-23T14:27:38.857Z,2.42
2022-10-23T14:30:06.690Z,2.90
2022-10-23T14:32:36.926Z,2.13
2022-10-23T14:35:05.273Z,2.30
2022-10-23T14:37:33.776Z,2.45
2022-10-23T14:40:02.243Z,2.88
2022-10-23T14:42:34.276Z,2.30
2022-10-23T14:45:02.902Z,2.42
2022-10-23T14:47:32.123Z,2.58
2022-10-23T14:50:02.881Z,2.40
2022-10-23T14:52:31.652Z,2.35
2022-10-23T14:55:01.973Z,3.60
2022-10-23T14:57:30.557Z,2.85
2022-10-23T15:00:04.415Z,2.38
2022-10-23T15:02:39.857Z,2.70
2022-10-23T15:05:08.195Z,2.75
2022-10-23T15:07:35.931Z,2.92
2022-10-23T15:10:05.301Z,2.30
2022-10-23T15:12:35.115Z,1.98
2022-10-23T15:15:03.043Z,2.22
2022-10-23T15:17:34.992Z,1.98
2022-10-23T15:20:04.655Z,2.10
2022-10-23T15:22:34.042Z,3.80
2022-10-23T15:25:02.555Z,3.47
2022-10-23T15:27:31.189Z,2.90
2022-10-23T15:30:02.085Z,3.00
2022-10-23T15:32:32.168Z,2.80
2022-10-23T15:35:03.389Z,2.58
2022-10-23T15:37:31.489Z,3.10
2022-10-23T15:40:02.703Z,3.03
2022-10-23T15:42:38.613Z,2.95
2022-10-23T15:45:07.326Z,3.00
2022-10-23T15:47:36.512Z,2.90
2022-10-23T15:50:04.536Z,2.80
2022-10-23T15:52:32.920Z,3.40
2022-10-23T15:55:02.814Z,3.42
2022-10-23T15:57:31.899Z,2.80
2022-10-23T16:00:00.347Z,2.92
2022-10-23T16:02:32.108Z,2.63
2022-10-23T16:05:00.105Z,2.92
2022-10-23T16:07:28.894Z,3.03
2022-10-23T16:09:58.421Z,3.13
2022-10-23T16:12:26.348Z,3.30
2022-10-23T16:14:54.542Z,2.90
2022-10-23T16:17:24.326Z,3.35
2022-10-23T16:19:52.502Z,3.30
2022-10-23T16:22:20.183Z,3.20
2022-10-23T16:24:48.285Z,3.30
2022-10-23T16:27:19.636Z,2.80
2022-10-23T16:29:47.620Z,3.30
2022-10-23T16:32:15.369Z,3.30
2022-10-23T16:34:43.443Z,2.75
2022-10-23T16:37:11.545Z,2.95
2022-10-23T16:39:52.834Z,3.33
2022-10-23T16:42:44.193Z,2.90
2022-10-23T16:45:24.873Z,2.95
2022-10-23T16:47:52.953Z,2.83
2022-10-23T16:50:20.742Z,2.95
2022-10-23T16:52:50.962Z,3.40
2022-10-23T16:55:21.193Z,3.22
2022-10-23T16:57:48.981Z,2.88
2022-10-23T17:00:16.728Z,3.55
2022-10-23T17:02:45.056Z,2.97
2022-10-23T17:05:12.780Z,3.30
2022-10-23T17:07:40.446Z,3.15
2022-10-23T17:10:08.626Z,3.67
2022-10-23T17:12:38.541Z,3.28
2022-10-23T17:15:06.880Z,3.00
2022-10-23T17:17:34.648Z,2.80
2022-10-23T17:20:02.457Z,3.30
2022-10-23T17:22:36.140Z,4.18
2022-10-23T17:25:04.364Z,3.38
2022-10-23T17:27:32.747Z,3.28
2022-10-23T17:30:01.396Z,3.78
2022-10-23T17:32:31.554Z,3.38
2022-10-23T17:35:01.770Z,3.75
2022-10-23T17:40:06.873Z,3.63
2022-10-23T17:45:03.833Z,3.60
2022-10-23T17:47:33.055Z,3.58
2022-10-23T17:50:01.629Z,3.70
2022-10-23T17:52:34.578Z,3.35
2022-10-23T17:55:03.390Z,4.07
2022-10-23T17:57:35.970Z,3.65
2022-10-23T18:00:05.969Z,3.90
2022-10-23T18:02:41.729Z,3.70
2022-10-23T18:05:44.904Z,3.88
2022-10-23T18:08:12.980Z,4.00
2022-10-23T18:10:42.178Z,4.10
2022-10-23T18:13:10.794Z,3.95
2022-10-23T18:15:39.786Z,3.60
2022-10-23T18:18:07.973Z,3.70
2022-10-23T18:20:40.069Z,3.47
2022-10-23T18:23:09.066Z,4.18
2022-10-23T18:25:36.902Z,3.00
2022-10-23T18:28:04.687Z,3.55
2022-10-23T18:30:33.107Z,3.65
2022-10-23T18:33:02.013Z,3.25
2022-10-23T18:35:30.498Z,3.47
2022-10-23T18:37:58.836Z,3.55
2022-10-23T18:40:28.861Z,3.75
2022-10-23T18:42:57.288Z,3.78
2022-10-23T18:45:25.006Z,3.78
2022-10-23T18:47:53.040Z,3.70
2022-10-23T18:50:20.801Z,4.05
2022-10-23T18:52:49.661Z,3.97
2022-10-23T18:55:17.950Z,3.50
2022-10-23T18:57:45.792Z,3.55
2022-10-23T19:00:16.737Z,3.50
2022-10-23T19:02:46.761Z,3.78
2022-10-23T19:05:17.021Z,3.25
2022-10-23T19:07:46.523Z,3.20
2022-10-23T19:10:16.202Z,3.30
2022-10-23T19:12:44.600Z,3.63
2022-10-23T19:15:12.410Z,3.38
2022-10-23T19:17:40.011Z,3.25
2022-10-23T19:20:13.725Z,3.35
2022-10-23T19:22:43.935Z,2.85
2022-10-23T19:25:17.235Z,2.58
2022-10-23T19:27:46.922Z,2.70
2022-10-23T19:30:16.323Z,3.38
2022-10-23T19:32:47.179Z,3.33
2022-10-23T19:35:16.194Z,3.55
2022-10-23T19:37:44.863Z,2.95
2022-10-23T19:40:13.301Z,3.75
2022-10-23T19:42:42.366Z,3.22
2022-10-23T19:45:12.011Z,3.40
2022-10-23T19:47:39.954Z,3.63
2022-10-23T19:50:08.780Z,2.90
2022-10-23T19:52:40.784Z,3.08
2022-10-23T19:55:09.098Z,3.35
2022-10-23T19:57:37.287Z,2.30
2022-10-23T20:00:08.690Z,2.38
2022-10-23T20:02:39.379Z,2.38
2022-10-23T20:08:01.249Z,2.33
2022-10-23T20:10:29.024Z,2.00
2022-10-23T20:13:18.607Z,1.83
2022-10-23T20:15:48.075Z,1.55
2022-10-23T20:18:16.016Z,1.63
2022-10-23T20:20:43.775Z,1.90
2022-10-23T20:23:11.430Z,1.52
2022-10-23T20:25:39.107Z,1.83
2022-10-23T20:28:09.088Z,1.33
2022-10-23T20:30:41.335Z,1.40
2022-10-23T20:33:31.572Z,1.67
2022-10-23T20:36:02.661Z,1.30
2022-10-23T20:38:32.111Z,1.38
2022-10-23T20:41:07.101Z,1.37
2022-10-23T20:43:35.977Z,1.08
2022-10-23T20:46:04.874Z,1.35
2022-10-23T20:48:36.243Z,1.10
2022-10-23T20:51:05.177Z,1.60
2022-10-23T20:53:33.053Z,0.98
2022-10-23T20:56:01.437Z,0.90
2022-10-23T20:58:28.848Z,1.50
2022-10-23T21:01:01.085Z,1.00
2022-10-23T21:03:29.353Z,1.60
2022-10-23T21:06:07.463Z,0.90
2022-10-23T21:08:36.580Z,1.75
2022-10-23T21:11:05.508Z,1.60
2022-10-23T21:13:33.823Z,1.15
2022-10-23T21:16:24.942Z,1.30
2022-10-23T21:18:56.349Z,1.02
2022-10-23T21:21:24.903Z,1.75
2022-10-23T21:23:53.428Z,1.88
2022-10-23T21:26:22.444Z,1.40
2022-10-23T21:28:56.059Z,1.70
2022-10-23T21:31:32.397Z,1.63
2022-10-23T21:34:02.599Z,1.70
2022-10-23T21:36:48.252Z,1.67
2022-10-23T21:39:22.598Z,1.52
2022-10-23T21:41:50.376Z,1.45
2022-10-23T21:44:20.786Z,2.38
2022-10-23T21:49:23.412Z,1.63
2022-10-23T21:51:52.214Z,1.55
2022-10-23T21:54:21.394Z,1.88
2022-10-23T21:56:51.091Z,1.77
2022-10-23T21:59:21.816Z,2.00
2022-10-23T22:01:49.926Z,1.48
2022-10-23T22:04:18.831Z,2.63
2022-10-23T22:06:51.403Z,1.90
2022-10-23T22:09:21.225Z,2.13
2022-10-23T22:11:53.327Z,2.30
2022-10-23T22:14:25.239Z,2.30
2022-10-23T22:16:57.729Z,2.30
2022-10-23T22:19:28.859Z,2.10
2022-10-23T22:21:56.861Z,2.33
2022-10-23T22:24:24.626Z,3.05
2022-10-23T22:26:54.339Z,2.30
2022-10-23T22:29:26.558Z,3.00
2022-10-23T22:31:54.519Z,2.42
2022-10-23T22:34:47.765Z,2.63
2022-10-23T22:37:12.733Z,2.42
2022-10-23T22:39:40.419Z,2.85
2022-10-23T22:42:08.677Z,3.15
2022-10-23T22:44:37.559Z,3.45
2022-10-23T22:47:05.556Z,3.13
2022-10-23T22:49:33.424Z,2.90
2022-10-23T22:52:01.511Z,2.50
2022-10-23T22:54:31.689Z,2.92
2022-10-23T22:57:00.215Z,2.55
2022-10-23T22:59:28.378Z,3.17
2022-10-23T23:01:56.996Z,2.90
2022-10-23T23:04:44.054Z,2.80
2022-10-23T23:07:13.083Z,3.22
2022-10-23T23:09:42.129Z,3.20
2022-10-23T23:12:10.914Z,2.88
2022-10-23T23:14:40.966Z,3.42
2022-10-23T23:17:10.272Z,3.22
2022-10-23T23:19:40.319Z,3.05
2022-10-23T23:22:09.285Z,3.00
2022-10-23T23:24:37.543Z,3.42
2022-10-23T23:27:05.180Z,2.92
2022-10-23T23:29:33.164Z,3.00
2022-10-23T23:32:01.578Z,2.60
2022-10-23T23:34:32.379Z,2.85
2022-10-23T23:37:00.250Z,2.88
2022-10-23T23:39:28.846Z,3.22
2022-10-23T23:41:57.510Z,2.75
2022-10-23T23:44:25.286Z,3.28
2022-10-23T23:46:52.809Z,3.05
2022-10-23T23:49:20.370Z,2.35
2022-10-23T23:51:48.906Z,2.85
2022-10-23T23:54:17.049Z,3.10
2022-10-23T23:56:45.950Z,2.75
2022-10-23T23:59:14.149Z,2.88
